KGLD/GLD METAR and TAF weather

Enter ICAO airport designator
Station Type Date Time Source
KGLD METAR 2021/05/14 07:53 UTC NOAA

KGLD 140753Z AUTO 20014KT 10SM CLR 12/08 A3006 RMK AO2 SLP150 T01170078


Station Type Date Time Source
KGLD Decoded METAR 2021/05/14 07:53 UTC NOAA

GOODLAND RENNER FIELD, KS, United States (KGLD) 39-22N 101-42W 1114M
May 14, 2021 - 03:53 AM EDT / 2021.05.14 0753 UTC
Wind: from the SSW (200 degrees) at 16 MPH (14 KT):0
Visibility: 10 mile(s):0
Sky conditions: clear
Temperature: 53.1 F (11.7 C)
Dew Point: 46.0 F (7.8 C)
Relative Humidity: 76%
Pressure (altimeter): 30.06 in. Hg (1017 hPa)
ob: KGLD 140753Z AUTO 20014KT 10SM CLR 12/08 A3006 RMK AO2 SLP150 T01170078
cycle: 8

Station Type Date Time Source
KGLD TAF 2021/05/14 07:03 UTC NOAA

TAF
AMD KGLD 140701Z 1407/1506 19016KT P6SM SKC
FM140900 21008KT P6SM SCT250
FM141300 27009KT P6SM SCT250
FM141400 32009KT P6SM SCT250
FM150000 12008KT P6SM SCT050 BKN110 PROB30 1500/1504 -TSRA BKN040CB

Example: see airport list